首页
METAR-TAF:

METAR-TAF

机场 :

瓦努阿拉瓦島, 瓦努阿图

纬度: 13-51-06S, 经度: 167-32-13E, 海拔: 2米

当前天气观测

该预报发布于2小时和8分钟前的09:00 UTC
静风
温度 26°C
湿度 94%
气压 1012 hPa
能见度10公里或以上
少量云层高于2000英尺
多云层高于29000英尺

METAR: NVSC 180900Z 00000KT 9999 FEW020 BKN290 26/25 Q1012

时间: 22:08 (11:08 UTC)

预报

该预报发布于6小时和8分钟前的05:00 UTC
预报有效从18日的 06点(UTC)到 19日的 06点(UTC)
风速5节,风向
能見度: 9000
少量云层高于2000英尺
散云层高于4000英尺
多云层高于12000英尺
多云层高于1800英尺
阴天层高于9000英尺
阵雨,

TAF: NVSC 180500Z 1806/1906 09005KT 9999 FEW020 SCT040 BKN120 INTER 1806/1812 9000 SHRA BKN018 OVC090

超过4000个机场的气象观测和天气预报(METAR&TAF报告)。

可查询的气象台以黄色和红色小点在地图上表示。

将鼠标移到小点上方,可查看气象台名称。

然后点击查看天气观测和预报。

如需切换地图:点击带黑十字的绿色按钮放大地图;点击带横线的绿色按钮缩小地图;或者点击绿色箭头查看邻近地区的地图。


METAR-TAF: